Time;durP1;ratioP1;P1;durP2;ratioP2;P2;SDS_P1;SDS_P2;PMS_P1;PMS_P2;Temp;Humidity;BMP_temperature;BMP_pressure;BME280_temperature;BME280_humidity;BME280_pressure;Samples;Min_cycle;Max_cycle;Signal;HPM_P1;HPM_P2
2024/04/17 00:01:21;;;;;;;15.73;3.37;;;;;;;;;;5516304;25;20343;-74
2024/04/17 00:03:46;;;;;;;9.90;3.20;;;;;;;;;;5518725;25;20680;-74
2024/04/17 00:06:12;;;;;;;23.47;3.07;;;;;;;;;;5518786;25;20262;-74
2024/04/17 00:08:38;;;;;;;13.20;3.10;;;;;;;;;;5538260;25;20682;-75
2024/04/17 00:11:04;;;;;;;14.70;3.90;;;;;;;;;;5521343;25;20227;-74
2024/04/17 00:13:31;;;;;;;18.07;4.03;;;;;;;;;;5499918;25;20353;-74
2024/04/17 00:15:59;;;;;;;13.90;3.30;;;;;;;;;;5512789;25;21245;-74
2024/04/17 00:18:25;;;;;;;15.73;3.13;;;;;;;;;;5511288;25;20279;-74
2024/04/17 00:20:50;;;;;;;17.97;2.63;;;;;;;;;;5510564;25;20247;-74
2024/04/17 00:23:16;;;;;;;12.10;3.27;;;;;;;;;;5488120;26;20584;-74
2024/04/17 00:25:41;;;;;;;18.50;3.10;;;;;;;;;;5518278;25;20231;-74
2024/04/17 00:28:07;;;;;;;17.63;3.70;;;;;;;;;;5515772;25;20227;-74
2024/04/17 00:30:33;;;;;;;15.87;3.17;;;;;;;;;;5495124;25;20256;-74
2024/04/17 00:32:58;;;;;;;15.90;3.00;;;;;;;;;;5542126;25;20259;-74
2024/04/17 00:35:23;;;;;;;19.30;3.23;;;;;;;;;;5518593;25;20266;-75
2024/04/17 00:37:49;;;;;;;17.23;3.03;;;;;;;;;;5518169;25;20240;-74
2024/04/17 00:40:14;;;;;;;8.17;2.70;;;;;;;;;;5531962;25;20749;-74
2024/04/17 00:42:40;;;;;;;11.00;3.23;;;;;;;;;;5518160;25;20239;-74
2024/04/17 00:45:06;;;;;;;15.97;3.17;;;;;;;;;;5518693;25;20614;-75
2024/04/17 00:47:31;;;;;;;10.60;2.90;;;;;;;;;;5518997;25;20262;-76
2024/04/17 00:49:57;;;;;;;18.63;2.83;;;;;;;;;;5531769;25;20325;-75
2024/04/17 00:52:23;;;;;;;18.40;3.20;;;;;;;;;;5519108;25;20597;-76
2024/04/17 00:54:49;;;;;;;11.27;2.87;;;;;;;;;;5517013;25;20351;-74
2024/04/17 00:57:15;;;;;;;17.13;3.23;;;;;;;;;;5516957;25;20236;-75
2024/04/17 00:59:44;;;;;;;10.43;2.90;;;;;;;;;;5524185;25;20658;-76
2024/04/17 01:02:09;;;;;;;9.57;2.80;;;;;;;;;;5517809;25;20271;-75
2024/04/17 01:04:35;;;;;;;13.50;3.00;;;;;;;;;;5517910;25;20287;-75
2024/04/17 01:07:00;;;;;;;14.03;3.20;;;;;;;;;;5517306;25;20239;-75
2024/04/17 01:09:26;;;;;;;15.00;2.83;;;;;;;;;;5518804;25;20383;-75
2024/04/17 01:11:52;;;;;;;12.00;2.77;;;;;;;;;;5528402;25;20607;-75
2024/04/17 01:14:17;;;;;;;16.37;2.73;;;;;;;;;;5486159;26;20239;-75
2024/04/17 01:16:43;;;;;;;13.80;3.33;;;;;;;;;;5511856;26;20548;-76
2024/04/17 01:19:10;;;;;;;11.30;2.70;;;;;;;;;;5520246;25;20243;-75
2024/04/17 01:21:36;;;;;;;10.83;2.63;;;;;;;;;;5516526;25;20232;-75
2024/04/17 01:24:02;;;;;;;15.37;2.67;;;;;;;;;;5519370;25;20277;-75
2024/04/17 01:26:27;;;;;;;14.47;2.80;;;;;;;;;;5537942;25;20231;-75
2024/04/17 01:28:53;;;;;;;22.77;2.90;;;;;;;;;;5517952;25;20282;-75
2024/04/17 01:31:18;;;;;;;15.20;2.93;;;;;;;;;;5510066;25;20321;-75
2024/04/17 01:33:44;;;;;;;10.13;2.37;;;;;;;;;;5481720;26;20331;-75
2024/04/17 01:36:11;;;;;;;13.17;3.23;;;;;;;;;;5511014;25;20231;-75
2024/04/17 01:38:37;;;;;;;11.37;3.13;;;;;;;;;;5516900;25;20281;-75
2024/04/17 01:41:02;;;;;;;20.70;2.80;;;;;;;;;;5486693;26;20228;-75
2024/04/17 01:43:30;;;;;;;15.10;2.40;;;;;;;;;;5518467;25;20244;-75
2024/04/17 01:45:56;;;;;;;14.23;2.90;;;;;;;;;;5467217;26;20754;-76
2024/04/17 01:48:22;;;;;;;13.47;2.60;;;;;;;;;;5487186;26;20973;-75
2024/04/17 01:50:47;;;;;;;14.17;2.27;;;;;;;;;;5517418;25;20287;-76
2024/04/17 01:53:12;;;;;;;12.40;2.80;;;;;;;;;;5519691;25;20228;-76
2024/04/17 01:55:38;;;;;;;14.63;2.70;;;;;;;;;;5489495;25;20292;-74
2024/04/17 01:58:04;;;;;;;15.13;2.70;;;;;;;;;;5525189;25;20328;-75
2024/04/17 02:00:29;;;;;;;14.77;2.97;;;;;;;;;;5519858;25;20711;-74
2024/04/17 02:02:55;;;;;;;18.30;3.03;;;;;;;;;;5486681;26;20240;-74
2024/04/17 02:05:20;;;;;;;19.43;3.73;;;;;;;;;;5516861;25;20255;-74
2024/04/17 02:07:46;;;;;;;15.80;3.27;;;;;;;;;;5522696;25;20235;-75
2024/04/17 02:10:11;;;;;;;15.17;3.30;;;;;;;;;;5515884;25;20290;-75
2024/04/17 02:12:37;;;;;;;11.77;3.40;;;;;;;;;;5519426;25;20628;-74
2024/04/17 02:15:03;;;;;;;18.27;2.83;;;;;;;;;;5518403;25;20255;-74
2024/04/17 02:17:28;;;;;;;9.17;2.40;;;;;;;;;;5519804;25;20247;-75
2024/04/17 02:19:54;;;;;;;16.73;3.13;;;;;;;;;;5519366;25;20299;-74
2024/04/17 02:22:19;;;;;;;12.27;2.80;;;;;;;;;;5515824;25;20275;-75
2024/04/17 02:24:44;;;;;;;15.23;2.67;;;;;;;;;;5484708;26;20265;-74
2024/04/17 02:27:10;;;;;;;10.77;3.07;;;;;;;;;;5498348;25;20578;-75
2024/04/17 02:29:35;;;;;;;10.43;2.70;;;;;;;;;;5521564;25;20266;-74
2024/04/17 02:32:01;;;;;;;13.40;2.70;;;;;;;;;;5519772;26;20255;-74
2024/04/17 02:34:26;;;;;;;14.93;3.03;;;;;;;;;;5521011;25;20223;-74
2024/04/17 02:36:52;;;;;;;16.60;2.93;;;;;;;;;;5522451;25;20318;-74
2024/04/17 02:39:17;;;;;;;13.20;2.80;;;;;;;;;;5524545;25;20239;-74
2024/04/17 02:41:42;;;;;;;15.73;3.03;;;;;;;;;;5521831;25;20255;-74
2024/04/17 02:44:08;;;;;;;16.93;2.77;;;;;;;;;;5519180;25;20593;-75
2024/04/17 02:46:33;;;;;;;9.73;2.83;;;;;;;;;;5519471;25;20288;-75
2024/04/17 02:48:59;;;;;;;11.87;2.90;;;;;;;;;;5543488;25;20228;-75
2024/04/17 02:51:25;;;;;;;11.10;2.67;;;;;;;;;;5487241;26;20331;-75
2024/04/17 02:53:50;;;;;;;12.80;3.40;;;;;;;;;;5521465;25;20292;-75
2024/04/17 02:56:16;;;;;;;13.10;3.27;;;;;;;;;;5520851;25;20805;-75
2024/04/17 02:58:41;;;;;;;17.80;3.17;;;;;;;;;;5522297;25;20232;-75
2024/04/17 03:01:14;;;;;;;15.63;3.40;;;;;;;;;;5518490;25;20239;-76
2024/04/17 03:03:40;;;;;;;14.00;3.03;;;;;;;;;;5518694;25;20236;-74
2024/04/17 03:06:06;;;;;;;11.83;3.10;;;;;;;;;;5508819;25;20236;-75
2024/04/17 03:08:32;;;;;;;12.60;3.30;;;;;;;;;;5520731;25;20231;-74
2024/04/17 03:11:01;;;;;;;13.00;3.60;;;;;;;;;;5494848;26;20236;-74
2024/04/17 03:13:27;;;;;;;11.97;3.07;;;;;;;;;;5512003;26;20273;-75
2024/04/17 03:15:53;;;;;;;12.30;3.20;;;;;;;;;;5524956;25;20274;-75
2024/04/17 03:18:21;;;;;;;12.67;3.37;;;;;;;;;;5488975;25;20247;-75
2024/04/17 03:20:47;;;;;;;16.00;3.43;;;;;;;;;;5521135;25;20247;-74
2024/04/17 03:23:12;;;;;;;12.63;3.00;;;;;;;;;;5519706;25;20298;-74
2024/04/17 03:25:37;;;;;;;11.57;2.77;;;;;;;;;;5487437;26;20334;-75
2024/04/17 03:28:03;;;;;;;13.33;3.57;;;;;;;;;;5520409;25;20256;-74
2024/04/17 03:30:30;;;;;;;16.07;3.37;;;;;;;;;;5528489;25;20327;-75
2024/04/17 03:32:56;;;;;;;19.80;3.77;;;;;;;;;;5521461;25;20310;-74
2024/04/17 03:35:21;;;;;;;12.47;3.30;;;;;;;;;;5520254;25;20641;-74
2024/04/17 03:37:47;;;;;;;10.50;3.60;;;;;;;;;;5527561;25;20247;-74
2024/04/17 03:40:12;;;;;;;15.73;3.10;;;;;;;;;;5518314;25;20262;-75
2024/04/17 03:42:38;;;;;;;13.67;3.70;;;;;;;;;;5518723;25;20244;-74
2024/04/17 03:45:03;;;;;;;10.17;3.00;;;;;;;;;;5523662;25;20235;-74
2024/04/17 03:47:29;;;;;;;19.17;3.30;;;;;;;;;;5520514;25;20236;-74
2024/04/17 03:50:02;;;;;;;9.93;3.47;;;;;;;;;;5520629;25;20583;-74
2024/04/17 03:52:28;;;;;;;15.33;3.17;;;;;;;;;;5517859;25;20263;-73
2024/04/17 03:54:53;;;;;;;11.17;3.33;;;;;;;;;;5511792;25;20271;-74
2024/04/17 03:57:18;;;;;;;11.93;3.57;;;;;;;;;;5458987;26;20757;-74
2024/04/17 03:59:44;;;;;;;15.10;3.30;;;;;;;;;;5518419;25;20673;-74
2024/04/17 04:02:09;;;;;;;19.07;4.20;;;;;;;;;;5517429;25;20605;-75
2024/04/17 04:04:35;;;;;;;16.40;3.30;;;;;;;;;;5517344;25;20909;-75
2024/04/17 04:07:00;;;;;;;11.27;3.50;;;;;;;;;;5521582;25;20235;-75
2024/04/17 04:09:26;;;;;;;18.90;3.70;;;;;;;;;;5494516;25;20362;-75
2024/04/17 04:11:51;;;;;;;13.80;4.13;;;;;;;;;;5520132;25;20232;-74
2024/04/17 04:14:16;;;;;;;14.87;3.50;;;;;;;;;;5518903;25;20231;-75
2024/04/17 04:16:42;;;;;;;11.30;3.93;;;;;;;;;;5485887;26;20751;-75
2024/04/17 04:19:07;;;;;;;9.37;3.37;;;;;;;;;;5528837;25;20239;-75
2024/04/17 04:21:33;;;;;;;21.83;4.30;;;;;;;;;;5487834;25;20331;-76
2024/04/17 04:23:59;;;;;;;13.33;3.17;;;;;;;;;;5541909;25;20281;-74
2024/04/17 04:26:24;;;;;;;9.70;3.10;;;;;;;;;;5489530;26;20272;-76
2024/04/17 04:28:49;;;;;;;14.80;4.03;;;;;;;;;;5476346;26;20244;-75
2024/04/17 04:31:15;;;;;;;6.67;2.50;;;;;;;;;;5519741;25;20243;-75
2024/04/17 04:33:40;;;;;;;12.77;2.53;;;;;;;;;;5487212;25;20328;-75
2024/04/17 04:36:06;;;;;;;16.83;3.37;;;;;;;;;;5538305;25;20223;-75
2024/04/17 04:38:31;;;;;;;13.83;3.43;;;;;;;;;;5521394;25;20294;-74
2024/04/17 04:40:57;;;;;;;16.00;2.70;;;;;;;;;;5486098;25;20248;-74
2024/04/17 04:43:22;;;;;;;15.80;3.40;;;;;;;;;;5517835;25;20228;-75
2024/04/17 04:45:48;;;;;;;14.73;2.53;;;;;;;;;;5516610;25;20270;-75
2024/04/17 04:48:14;;;;;;;8.83;3.30;;;;;;;;;;5516646;25;20240;-74
2024/04/17 04:50:39;;;;;;;12.97;2.80;;;;;;;;;;5534188;25;20281;-74
2024/04/17 04:53:05;;;;;;;11.50;2.77;;;;;;;;;;5526104;25;20275;-75
2024/04/17 04:55:32;;;;;;;12.97;2.97;;;;;;;;;;5486827;26;20611;-74
2024/04/17 04:57:57;;;;;;;13.03;2.60;;;;;;;;;;5517100;25;20567;-75
2024/04/17 05:00:23;;;;;;;14.53;2.80;;;;;;;;;;5503892;25;20270;-75
2024/04/17 05:02:48;;;;;;;13.50;3.47;;;;;;;;;;5517924;26;20324;-75
2024/04/17 05:05:14;;;;;;;7.40;2.90;;;;;;;;;;5516234;26;20248;-74
2024/04/17 05:07:39;;;;;;;10.40;2.70;;;;;;;;;;5518473;25;20247;-74
2024/04/17 05:10:05;;;;;;;6.03;2.53;;;;;;;;;;5520477;25;20304;-74
2024/04/17 05:12:30;;;;;;;10.27;2.60;;;;;;;;;;5479949;26;20244;-74
2024/04/17 05:14:56;;;;;;;10.57;2.70;;;;;;;;;;5482197;25;20236;-75
2024/04/17 05:17:21;;;;;;;6.80;2.10;;;;;;;;;;5540115;25;20569;-74
2024/04/17 05:19:47;;;;;;;6.07;2.17;;;;;;;;;;5485847;26;20382;-75
2024/04/17 05:22:12;;;;;;;6.50;2.07;;;;;;;;;;5513758;25;20758;-75
2024/04/17 05:24:37;;;;;;;10.13;2.70;;;;;;;;;;5517897;25;20691;-75
2024/04/17 05:27:03;;;;;;;6.63;2.77;;;;;;;;;;5517835;26;20287;-76
2024/04/17 05:29:29;;;;;;;7.43;2.30;;;;;;;;;;5516450;25;20263;-76
2024/04/17 05:31:55;;;;;;;11.20;2.67;;;;;;;;;;5502045;26;20239;-75
2024/04/17 05:34:20;;;;;;;7.20;2.45;;;;;;;;;;5482886;26;20244;-73
2024/04/17 05:36:46;;;;;;;5.50;2.57;;;;;;;;;;5513255;25;20290;-73
2024/04/17 05:39:11;;;;;;;8.52;2.90;;;;;;;;;;5484113;26;20261;-72
2024/04/17 05:41:36;;;;;;;11.00;2.73;;;;;;;;;;5503634;25;20664;-73
2024/04/17 05:44:02;;;;;;;8.73;3.05;;;;;;;;;;5466178;26;20307;-75
2024/04/17 05:46:28;;;;;;;10.75;2.67;;;;;;;;;;5539003;25;20244;-76
2024/04/17 05:48:56;;;;;;;11.60;2.97;;;;;;;;;;5514783;25;20243;-77
2024/04/17 05:51:21;;;;;;;6.80;2.90;;;;;;;;;;5514105;25;20576;-76
2024/04/17 05:53:47;;;;;;;8.77;3.30;;;;;;;;;;5521549;25;20239;-76
2024/04/17 05:56:14;;;;;;;6.28;2.25;;;;;;;;;;5433329;26;20245;-77
2024/04/17 05:58:40;;;;;;;7.72;2.58;;;;;;;;;;5526831;25;20696;-77
2024/04/17 06:01:05;;;;;;;10.18;2.50;;;;;;;;;;5520651;25;20230;-76
2024/04/17 06:03:31;;;;;;;5.13;1.77;;;;;;;;;;5520423;25;20758;-76
2024/04/17 06:05:56;;;;;;;3.63;1.70;;;;;;;;;;5521799;25;20228;-76
2024/04/17 06:08:22;;;;;;;4.78;1.85;;;;;;;;;;5489242;26;20641;-76
2024/04/17 06:10:47;;;;;;;5.27;2.13;;;;;;;;;;5509221;25;20257;-76
2024/04/17 06:13:13;;;;;;;8.05;2.00;;;;;;;;;;5535073;25;20339;-76
2024/04/17 06:15:38;;;;;;;4.80;1.73;;;;;;;;;;5522256;25;20247;-76
2024/04/17 06:18:05;;;;;;;3.83;1.92;;;;;;;;;;5516879;25;20442;-76
2024/04/17 06:20:30;;;;;;;6.40;2.22;;;;;;;;;;5513595;25;20299;-75
2024/04/17 06:22:56;;;;;;;8.85;1.95;;;;;;;;;;5503164;25;20250;-75
2024/04/17 06:25:22;;;;;;;3.75;1.55;;;;;;;;;;5518345;25;20301;-75
2024/04/17 06:27:47;;;;;;;6.65;1.90;;;;;;;;;;5464117;25;20640;-74
2024/04/17 06:30:13;;;;;;;5.53;1.98;;;;;;;;;;5483184;26;20699;-74
2024/04/17 06:32:38;;;;;;;2.80;1.42;;;;;;;;;;5477480;26;20243;-75
2024/04/17 06:35:04;;;;;;;3.55;1.63;;;;;;;;;;5515412;25;20302;-74
2024/04/17 06:37:30;;;;;;;6.28;1.55;;;;;;;;;;5477317;26;20386;-74
2024/04/17 06:39:55;;;;;;;3.03;1.25;;;;;;;;;;5510972;25;20252;-75
2024/04/17 06:42:20;;;;;;;4.18;1.35;;;;;;;;;;5515650;25;20301;-74
2024/04/17 06:44:46;;;;;;;5.43;1.73;;;;;;;;;;5518650;25;20299;-74
2024/04/17 06:47:12;;;;;;;7.23;1.20;;;;;;;;;;5516494;26;20803;-76
2024/04/17 06:49:37;;;;;;;4.67;1.40;;;;;;;;;;5514008;25;20288;-76
2024/04/17 06:52:03;;;;;;;5.82;1.50;;;;;;;;;;5485214;26;20247;-76
2024/04/17 06:54:28;;;;;;;3.72;1.00;;;;;;;;;;5478660;26;20244;-76
2024/04/17 06:56:54;;;;;;;4.93;1.27;;;;;;;;;;5514617;25;20267;-75
2024/04/17 06:59:19;;;;;;;3.30;1.43;;;;;;;;;;5514687;25;20766;-75
2024/04/17 07:01:45;;;;;;;5.22;1.73;;;;;;;;;;5513977;25;20331;-76
2024/04/17 07:04:10;;;;;;;5.70;1.87;;;;;;;;;;5514616;25;20282;-75
2024/04/17 07:06:36;;;;;;;7.23;1.63;;;;;;;;;;5519060;25;20227;-75
2024/04/17 07:09:01;;;;;;;6.43;1.77;;;;;;;;;;5511132;25;20586;-74
2024/04/17 07:11:27;;;;;;;5.07;1.80;;;;;;;;;;5470910;26;20255;-75
2024/04/17 07:13:53;;;;;;;4.38;1.63;;;;;;;;;;5479379;25;20533;-75
2024/04/17 07:16:18;;;;;;;2.35;1.50;;;;;;;;;;5520816;25;20282;-74
2024/04/17 07:18:45;;;;;;;4.63;1.60;;;;;;;;;;5515439;25;20243;-74
2024/04/17 07:21:11;;;;;;;5.57;1.30;;;;;;;;;;5523783;25;20243;-73
2024/04/17 07:23:38;;;;;;;2.45;1.40;;;;;;;;;;5506405;25;20236;-75
2024/04/17 07:26:04;;;;;;;3.50;1.45;;;;;;;;;;5520977;25;20247;-76
2024/04/17 07:28:29;;;;;;;4.55;1.48;;;;;;;;;;5519667;25;21086;-74
2024/04/17 07:30:55;;;;;;;4.25;1.40;;;;;;;;;;5487244;25;20945;-74
2024/04/17 07:33:20;;;;;;;4.78;1.83;;;;;;;;;;5492098;26;20357;-74
2024/04/17 07:35:46;;;;;;;5.80;1.50;;;;;;;;;;5496714;25;20263;-75
2024/04/17 07:38:12;;;;;;;6.28;1.75;;;;;;;;;;5492925;25;20633;-76
2024/04/17 07:40:38;;;;;;;5.10;1.40;;;;;;;;;;5520016;25;20299;-75
2024/04/17 07:43:03;;;;;;;3.72;1.67;;;;;;;;;;5519646;25;20262;-75
2024/04/17 07:45:29;;;;;;;9.88;1.65;;;;;;;;;;5486047;26;20417;-75
2024/04/17 07:47:55;;;;;;;4.38;1.67;;;;;;;;;;5518725;25;20377;-75
2024/04/17 07:50:20;;;;;;;9.55;1.77;;;;;;;;;;5522054;25;20306;-75
2024/04/17 07:52:45;;;;;;;5.32;1.90;;;;;;;;;;5500762;25;20680;-75
2024/04/17 07:55:11;;;;;;;7.13;1.63;;;;;;;;;;5516615;25;20247;-75
2024/04/17 07:57:37;;;;;;;7.03;1.95;;;;;;;;;;5497089;25;20692;-75
2024/04/17 08:00:03;;;;;;;10.30;1.85;;;;;;;;;;5520216;26;20704;-75
2024/04/17 08:02:28;;;;;;;8.27;2.35;;;;;;;;;;5549170;25;20266;-74
2024/04/17 08:04:54;;;;;;;6.68;1.65;;;;;;;;;;5520971;25;20346;-74
2024/04/17 08:07:19;;;;;;;6.28;1.55;;;;;;;;;;5492321;26;20235;-74
2024/04/17 08:09:45;;;;;;;5.57;1.70;;;;;;;;;;5509075;25;20264;-74
2024/04/17 08:12:10;;;;;;;9.18;2.10;;;;;;;;;;5520973;25;20270;-75
2024/04/17 08:14:36;;;;;;;9.88;2.10;;;;;;;;;;5520604;25;20287;-74
2024/04/17 08:17:01;;;;;;;10.45;1.90;;;;;;;;;;5524255;25;20748;-73
2024/04/17 08:19:27;;;;;;;9.13;1.58;;;;;;;;;;5486029;26;20276;-74
2024/04/17 08:21:52;;;;;;;6.78;1.33;;;;;;;;;;5515504;25;20243;-75
2024/04/17 08:24:20;;;;;;;9.80;1.83;;;;;;;;;;5502322;25;20241;-73
2024/04/17 08:26:48;;;;;;;5.38;1.40;;;;;;;;;;5531587;25;20278;-73
2024/04/17 08:29:13;;;;;;;5.10;1.67;;;;;;;;;;5486916;26;20240;-75
2024/04/17 08:31:39;;;;;;;8.95;1.67;;;;;;;;;;5485885;26;20761;-74
2024/04/17 08:34:04;;;;;;;7.82;1.40;;;;;;;;;;5516991;25;20239;-74
2024/04/17 08:36:30;;;;;;;11.73;1.63;;;;;;;;;;5517139;25;20795;-75
2024/04/17 08:38:56;;;;;;;9.18;1.40;;;;;;;;;;5508737;25;20275;-75
2024/04/17 08:41:33;;;;;;;6.55;1.30;;;;;;;;;;5476797;26;20247;-74
2024/04/17 08:44:02;;;;;;;11.88;1.65;;;;;;;;;;5519877;25;20250;-75
2024/04/17 08:46:30;;;;;;;11.32;1.55;;;;;;;;;;5519910;25;20296;-76
2024/04/17 08:48:56;;;;;;;5.93;1.00;;;;;;;;;;5502272;26;20243;-75
2024/04/17 08:51:24;;;;;;;6.43;1.58;;;;;;;;;;5507824;25;20235;-75
2024/04/17 08:53:53;;;;;;;13.32;1.50;;;;;;;;;;5522222;25;20236;-74
2024/04/17 08:56:22;;;;;;;7.13;1.33;;;;;;;;;;5519603;25;20266;-75
2024/04/17 08:58:48;;;;;;;9.00;1.52;;;;;;;;;;5523955;25;20239;-76
2024/04/17 09:01:18;;;;;;;8.40;1.90;;;;;;;;;;5516741;25;20743;-76
2024/04/17 09:03:44;;;;;;;11.18;1.42;;;;;;;;;;5520513;25;20275;-76
2024/04/17 09:06:11;;;;;;;5.78;1.50;;;;;;;;;;5516829;25;20291;-76
2024/04/17 09:08:36;;;;;;;6.28;1.00;;;;;;;;;;5548763;25;20243;-76
2024/04/17 09:11:02;;;;;;;9.90;1.30;;;;;;;;;;5523624;25;20318;-74
2024/04/17 09:13:28;;;;;;;8.00;1.50;;;;;;;;;;5512926;25;20229;-74
2024/04/17 09:15:54;;;;;;;12.57;1.75;;;;;;;;;;5520495;25;20298;-76
2024/04/17 09:18:28;;;;;;;8.15;1.60;;;;;;;;;;5487825;26;20279;-74
2024/04/17 09:20:57;;;;;;;11.45;1.67;;;;;;;;;;5518063;25;20244;-76
2024/04/17 09:23:23;;;;;;;6.75;1.00;;;;;;;;;;5520128;25;20675;-74
2024/04/17 09:25:49;;;;;;;6.82;1.08;;;;;;;;;;5512873;25;20621;-76
2024/04/17 09:28:15;;;;;;;7.85;1.30;;;;;;;;;;5528311;25;20254;-74
2024/04/17 09:30:43;;;;;;;5.03;1.15;;;;;;;;;;5501626;25;20244;-74
2024/04/17 09:33:12;;;;;;;12.55;1.77;;;;;;;;;;5514988;26;20248;-74
2024/04/17 09:35:40;;;;;;;8.98;1.67;;;;;;;;;;5510841;26;20236;-73
2024/04/17 09:38:15;;;;;;;9.30;1.25;;;;;;;;;;5505527;25;20318;-74
2024/04/17 09:40:43;;;;;;;10.10;1.67;;;;;;;;;;5536173;25;20293;-73
2024/04/17 09:43:09;;;;;;;4.85;1.10;;;;;;;;;;5494071;25;20262;-75
2024/04/17 09:45:36;;;;;;;7.90;1.45;;;;;;;;;;5483364;26;20713;-74
2024/04/17 09:48:02;;;;;;;5.35;0.90;;;;;;;;;;5525266;25;20239;-71
2024/04/17 09:50:33;;;;;;;9.18;1.17;;;;;;;;;;5521652;25;20624;-74
2024/04/17 09:53:00;;;;;;;5.70;1.10;;;;;;;;;;5487825;26;20266;-73
2024/04/17 09:55:27;;;;;;;6.90;1.00;;;;;;;;;;5522026;25;20239;-74
2024/04/17 09:57:56;;;;;;;9.57;1.23;;;;;;;;;;5497244;25;20244;-73
2024/04/17 10:00:22;;;;;;;5.45;1.02;;;;;;;;;;5527598;25;20250;-73
2024/04/17 10:02:50;;;;;;;5.72;0.88;;;;;;;;;;5520073;25;20647;-73
2024/04/17 10:05:16;;;;;;;6.63;1.08;;;;;;;;;;5512839;25;20279;-76
2024/04/17 10:07:42;;;;;;;14.45;1.90;;;;;;;;;;5513284;25;20319;-76
2024/04/17 10:10:12;;;;;;;7.85;0.90;;;;;;;;;;5521200;25;20279;-76
2024/04/17 10:12:39;;;;;;;10.63;0.85;;;;;;;;;;5517604;25;20291;-72
2024/04/17 10:15:07;;;;;;;8.20;1.15;;;;;;;;;;5518136;25;20611;-71
2024/04/17 10:17:33;;;;;;;7.45;1.13;;;;;;;;;;5513306;25;20235;-74
2024/04/17 10:19:58;;;;;;;7.50;1.33;;;;;;;;;;5519595;25;20240;-71
2024/04/17 10:22:24;;;;;;;10.40;1.40;;;;;;;;;;5517759;25;20713;-70
2024/04/17 10:24:49;;;;;;;5.18;1.15;;;;;;;;;;5514826;25;20226;-74
2024/04/17 10:27:19;;;;;;;10.95;1.40;;;;;;;;;;5525938;25;20230;-74
2024/04/17 10:29:44;;;;;;;4.72;0.82;;;;;;;;;;5519655;25;20747;-74
2024/04/17 10:32:11;;;;;;;7.10;1.08;;;;;;;;;;5519231;25;20616;-75
2024/04/17 10:34:47;;;;;;;6.72;1.48;;;;;;;;;;5517784;25;20324;-75
2024/04/17 10:37:16;;;;;;;5.93;0.75;;;;;;;;;;5494633;26;20280;-70
2024/04/17 10:39:42;;;;;;;3.70;0.73;;;;;;;;;;5519235;25;20303;-74
2024/04/17 10:42:08;;;;;;;3.95;0.95;;;;;;;;;;5518445;25;20235;-74
2024/04/17 10:44:35;;;;;;;7.20;1.05;;;;;;;;;;5475731;25;20316;-74
2024/04/17 10:47:05;;;;;;;6.72;1.70;;;;;;;;;;5525759;25;20243;-75
2024/04/17 10:49:38;;;;;;;7.03;1.35;;;;;;;;;;5517120;25;20629;-76
2024/04/17 10:52:04;;;;;;;3.63;0.90;;;;;;;;;;5502329;25;20233;-73
2024/04/17 10:54:29;;;;;;;6.25;1.08;;;;;;;;;;5514532;25;20766;-74
2024/04/17 10:56:58;;;;;;;4.03;0.98;;;;;;;;;;5521694;25;20278;-73
2024/04/17 10:59:27;;;;;;;4.30;0.70;;;;;;;;;;5500628;25;20237;-74
2024/04/17 11:01:52;;;;;;;2.00;0.73;;;;;;;;;;5521704;25;20252;-75
2024/04/17 11:04:18;;;;;;;3.65;0.60;;;;;;;;;;5506700;25;20269;-72
2024/04/17 11:06:44;;;;;;;3.53;0.90;;;;;;;;;;5533257;25;20235;-75
2024/04/17 11:09:09;;;;;;;3.45;0.60;;;;;;;;;;5482955;26;20651;-73
2024/04/17 11:11:35;;;;;;;4.30;0.50;;;;;;;;;;5505825;25;20825;-74
2024/04/17 11:14:00;;;;;;;3.03;0.65;;;;;;;;;;5486920;26;20247;-76
2024/04/17 11:16:26;;;;;;;2.58;0.50;;;;;;;;;;5512465;25;20237;-76
2024/04/17 11:18:52;;;;;;;6.80;0.90;;;;;;;;;;5511653;25;20755;-71
2024/04/17 11:21:17;;;;;;;3.85;0.57;;;;;;;;;;5517003;25;20406;-73
2024/04/17 11:23:44;;;;;;;4.20;0.75;;;;;;;;;;5536182;25;20226;-74
2024/04/17 11:26:11;;;;;;;2.15;0.60;;;;;;;;;;5484951;26;20446;-75
2024/04/17 11:28:40;;;;;;;7.45;1.02;;;;;;;;;;5514228;25;20244;-76
2024/04/17 11:31:09;;;;;;;8.27;0.98;;;;;;;;;;5525203;25;20387;-75
2024/04/17 11:33:37;;;;;;;6.50;1.15;;;;;;;;;;5502357;25;20258;-76
2024/04/17 11:36:07;;;;;;;4.75;1.55;;;;;;;;;;5529431;25;20719;-72
2024/04/17 11:38:33;;;;;;;4.47;0.75;;;;;;;;;;5514813;25;20248;-76
2024/04/17 11:41:01;;;;;;;5.80;0.75;;;;;;;;;;5522729;25;20810;-74
2024/04/17 11:43:26;;;;;;;6.70;0.90;;;;;;;;;;5522661;25;20236;-75
2024/04/17 11:45:51;;;;;;;6.88;1.02;;;;;;;;;;5514865;25;20593;-76
2024/04/17 11:48:17;;;;;;;3.58;0.82;;;;;;;;;;5520649;25;20301;-74
2024/04/17 11:50:42;;;;;;;2.67;0.60;;;;;;;;;;5492980;26;20274;-72
2024/04/17 11:53:08;;;;;;;4.55;0.85;;;;;;;;;;5524394;25;20243;-74
2024/04/17 11:55:34;;;;;;;3.83;0.70;;;;;;;;;;5488116;26;20685;-74
2024/04/17 11:57:59;;;;;;;3.15;0.70;;;;;;;;;;5515228;25;20241;-76
2024/04/17 12:00:25;;;;;;;4.07;0.60;;;;;;;;;;5524198;25;20309;-76
2024/04/17 12:02:50;;;;;;;5.90;1.10;;;;;;;;;;5485159;25;20239;-75
2024/04/17 12:05:16;;;;;;;4.72;0.98;;;;;;;;;;5512390;26;20232;-74
2024/04/17 12:07:42;;;;;;;4.45;0.73;;;;;;;;;;5523914;25;20757;-74
2024/04/17 12:10:08;;;;;;;3.88;0.95;;;;;;;;;;5524617;25;20793;-73
2024/04/17 12:12:33;;;;;;;2.55;0.63;;;;;;;;;;5489375;26;20248;-73
2024/04/17 12:15:00;;;;;;;5.38;0.85;;;;;;;;;;5523207;25;20818;-71
2024/04/17 12:17:26;;;;;;;1.98;0.50;;;;;;;;;;5520030;25;20286;-74
2024/04/17 12:19:51;;;;;;;2.30;0.73;;;;;;;;;;5522584;25;20259;-73
2024/04/17 12:22:18;;;;;;;4.70;0.82;;;;;;;;;;5528666;25;20337;-73
2024/04/17 12:27:29;;;;;;;6.72;1.08;;;;;;;;;;5516031;25;20268;-74
2024/04/17 12:29:55;;;;;;;1.83;0.77;;;;;;;;;;5503099;25;20243;-73
2024/04/17 12:32:21;;;;;;;2.60;0.82;;;;;;;;;;5535408;25;20274;-73
2024/04/17 12:34:46;;;;;;;6.40;1.08;;;;;;;;;;5520576;25;20266;-74
2024/04/17 12:37:13;;;;;;;6.28;1.15;;;;;;;;;;5520115;26;20269;-73
2024/04/17 12:39:40;;;;;;;2.20;0.60;;;;;;;;;;5518406;26;20656;-74
2024/04/17 12:42:05;;;;;;;4.40;0.60;;;;;;;;;;5490848;26;20290;-74
2024/04/17 12:44:31;;;;;;;3.15;0.80;;;;;;;;;;5525585;25;20266;-74
2024/04/17 12:46:56;;;;;;;3.88;0.52;;;;;;;;;;5519144;25;20263;-74
2024/04/17 12:49:23;;;;;;;3.33;0.63;;;;;;;;;;5523156;25;20274;-74
2024/04/17 12:51:49;;;;;;;2.65;0.82;;;;;;;;;;5490283;26;20707;-75
2024/04/17 12:54:15;;;;;;;1.70;0.50;;;;;;;;;;5519366;25;20262;-74
2024/04/17 12:56:41;;;;;;;2.50;0.75;;;;;;;;;;5520415;25;20760;-75
2024/04/17 12:59:09;;;;;;;1.00;0.47;;;;;;;;;;5526812;25;20253;-73
2024/04/17 13:01:35;;;;;;;4.07;0.98;;;;;;;;;;5506562;26;20228;-75
2024/04/17 13:04:02;;;;;;;1.95;0.80;;;;;;;;;;5521763;25;20360;-75
2024/04/17 13:06:30;;;;;;;1.13;0.50;;;;;;;;;;5525622;25;20249;-75
2024/04/17 13:08:56;;;;;;;2.78;0.73;;;;;;;;;;5521400;25;20270;-73
2024/04/17 13:11:21;;;;;;;2.78;0.40;;;;;;;;;;5517167;25;20239;-74
2024/04/17 13:13:47;;;;;;;1.92;0.50;;;;;;;;;;5525105;25;20251;-75
2024/04/17 13:16:13;;;;;;;1.83;0.50;;;;;;;;;;5509531;25;20237;-76
2024/04/17 13:18:39;;;;;;;5.25;0.52;;;;;;;;;;5518520;25;20328;-76
2024/04/17 13:21:05;;;;;;;5.15;0.77;;;;;;;;;;5480940;26;20706;-76
2024/04/17 13:23:30;;;;;;;2.15;0.50;;;;;;;;;;5522263;26;20231;-75
2024/04/17 13:25:58;;;;;;;2.70;0.77;;;;;;;;;;5540097;25;20239;-74
2024/04/17 13:28:25;;;;;;;1.77;0.47;;;;;;;;;;5500114;26;20829;-74
2024/04/17 13:30:58;;;;;;;2.42;0.40;;;;;;;;;;5521526;25;20245;-74
2024/04/17 13:33:24;;;;;;;2.88;0.50;;;;;;;;;;5507358;26;20306;-74
2024/04/17 13:35:58;;;;;;;4.15;0.60;;;;;;;;;;5515703;25;20282;-74
2024/04/17 13:38:25;;;;;;;1.83;0.50;;;;;;;;;;5524304;25;20282;-74
2024/04/17 13:41:07;;;;;;;3.72;0.70;;;;;;;;;;5522053;25;20235;-75
2024/04/17 13:43:34;;;;;;;2.22;0.50;;;;;;;;;;5522409;25;20251;-74
2024/04/17 13:46:08;;;;;;;5.95;0.63;;;;;;;;;;5500839;25;20233;-75
2024/04/17 13:48:34;;;;;;;1.25;0.50;;;;;;;;;;5519931;25;20243;-74
2024/04/17 13:51:01;;;;;;;2.33;0.80;;;;;;;;;;5518182;25;20274;-75
2024/04/17 13:53:27;;;;;;;3.45;1.33;;;;;;;;;;5511518;25;20259;-76
2024/04/17 13:55:52;;;;;;;3.58;1.42;;;;;;;;;;5526851;25;20231;-77
2024/04/17 13:58:19;;;;;;;2.88;1.13;;;;;;;;;;5519634;25;20478;-77
2024/04/17 14:00:44;;;;;;;2.20;0.70;;;;;;;;;;5482958;26;20275;-77
2024/04/17 14:03:10;;;;;;;3.42;0.88;;;;;;;;;;5511355;25;20240;-76
2024/04/17 14:05:39;;;;;;;3.13;1.20;;;;;;;;;;5491012;25;20239;-76
2024/04/17 14:08:07;;;;;;;3.47;0.98;;;;;;;;;;5528880;25;20262;-78
2024/04/17 14:10:33;;;;;;;4.45;1.17;;;;;;;;;;5485948;26;20717;-77
2024/04/17 14:12:59;;;;;;;2.17;1.15;;;;;;;;;;5527403;25;20231;-77
2024/04/17 14:15:26;;;;;;;4.10;1.40;;;;;;;;;;5480348;25;20240;-78
2024/04/17 14:17:53;;;;;;;2.17;1.00;;;;;;;;;;5544616;25;20715;-77
2024/04/17 14:20:19;;;;;;;3.22;1.23;;;;;;;;;;5515426;25;20286;-78
2024/04/17 14:22:45;;;;;;;2.63;1.20;;;;;;;;;;5488314;26;20703;-78
2024/04/17 14:25:12;;;;;;;1.98;0.98;;;;;;;;;;5480266;26;20300;-78
2024/04/17 14:27:37;;;;;;;3.13;1.30;;;;;;;;;;5492500;25;20283;-78
2024/04/17 14:30:03;;;;;;;4.20;1.75;;;;;;;;;;5512885;25;20227;-77
2024/04/17 14:32:28;;;;;;;3.22;2.10;;;;;;;;;;5521626;25;20294;-77
2024/04/17 14:34:54;;;;;;;4.78;1.63;;;;;;;;;;5527363;25;20349;-76